Time;durP1;ratioP1;P1;durP2;ratioP2;P2;SDS_P1;SDS_P2;PMS_P1;PMS_P2;Temp;Humidity;BMP_temperature;BMP_pressure;BME280_temperature;BME280_humidity;BME280_pressure;Samples;Min_cycle;Max_cycle;Signal;HPM_P1;HPM_P2
2022/07/12 00:01:00;;;;;;;3.60;1.60;;;;;;;12.50;75.68;100175.79;107038;1280;108960;-72
2022/07/12 00:03:33;;;;;;;2.40;1.50;;;;;;;12.50;75.72;100178.06;106968;1280;107790;-72
2022/07/12 00:06:06;;;;;;;5.20;2.00;;;;;;;12.51;75.73;100182.25;106947;1279;138747;-72
2022/07/12 00:08:38;;;;;;;7.40;2.00;;;;;;;12.51;75.87;100182.04;106931;1281;96173;-72
2022/07/12 00:11:11;;;;;;;1.90;1.50;;;;;;;12.52;76.00;100181.83;106795;1281;138676;-72
2022/07/12 00:13:44;;;;;;;2.80;1.60;;;;;;;12.53;75.96;100182.31;107045;1281;107710;-72
2022/07/12 00:16:16;;;;;;;2.40;1.50;;;;;;;12.53;76.02;100182.46;105847;1281;139050;-71
2022/07/12 00:18:49;;;;;;;2.50;1.60;;;;;;;12.54;76.10;100186.11;106788;1279;97602;-72
2022/07/12 00:21:21;;;;;;;5.10;1.80;;;;;;;12.54;76.05;100185.23;106070;1279;98258;-71
2022/07/12 00:23:53;;;;;;;4.80;1.70;;;;;;;12.52;76.23;100185.49;106531;1281;138955;-71
2022/07/12 00:26:26;;;;;;;2.60;1.50;;;;;;;12.52;76.44;100185.65;106433;1279;109081;-72
2022/07/12 00:29:00;;;;;;;2.40;1.70;;;;;;;12.53;76.41;100189.81;106906;1281;139350;-71
2022/07/12 00:31:32;;;;;;;5.80;2.30;;;;;;;12.52;76.42;100185.14;107009;1280;96239;-72
2022/07/12 00:34:04;;;;;;;2.30;1.70;;;;;;;12.52;76.47;100185.85;106924;1279;138858;-71
2022/07/12 00:36:37;;;;;;;2.20;1.40;;;;;;;12.49;76.37;100183.32;107031;1279;112202;-72
2022/07/12 00:39:09;;;;;;;4.50;2.00;;;;;;;12.48;76.37;100177.99;107049;1280;108770;-72
2022/07/12 00:41:42;;;;;;;2.70;1.50;;;;;;;12.47;76.64;100174.91;106964;1281;139354;-72
2022/07/12 00:44:14;;;;;;;7.40;1.70;;;;;;;12.46;76.57;100175.65;107073;1281;96579;-71
2022/07/12 00:46:47;;;;;;;3.20;1.40;;;;;;;12.44;76.70;100175.36;106949;1279;138482;-71
2022/07/12 00:49:20;;;;;;;1.90;1.40;;;;;;;12.42;76.76;100175.96;107062;1280;112517;-72
2022/07/12 00:51:54;;;;;;;5.80;1.80;;;;;;;12.42;76.88;100173.54;106967;1279;139336;-71
2022/07/12 00:54:26;;;;;;;6.10;1.90;;;;;;;12.40;76.91;100176.57;105826;1280;109135;-72
2022/07/12 00:56:58;;;;;;;3.70;1.80;;;;;;;12.39;76.92;100172.96;107028;1279;96135;-71
2022/07/12 00:59:30;;;;;;;3.80;1.80;;;;;;;12.36;76.94;100170.10;106958;1280;138557;-71
2022/07/12 01:02:03;;;;;;;3.40;1.60;;;;;;;12.33;77.04;100171.44;106445;1268;111946;-72
2022/07/12 01:04:36;;;;;;;5.00;1.50;;;;;;;12.31;77.15;100173.44;106955;1279;139542;-72
2022/07/12 01:07:11;;;;;;;;;;;;;;;12.30;77.24;100176.98;107193;1279;107909;-73
2022/07/12 01:09:43;;;;;;;3.50;1.70;;;;;;;12.27;77.30;100176.21;107181;1279;96051;-73
2022/07/12 01:12:16;;;;;;;3.10;1.90;;;;;;;12.24;77.37;100176.17;105938;1277;97935;-72
2022/07/12 01:14:50;;;;;;;5.40;1.90;;;;;;;12.23;77.49;100177.63;105694;1279;111319;-72
2022/07/12 01:17:24;;;;;;;5.40;1.90;;;;;;;12.22;77.51;100180.65;105569;1279;139009;-72
2022/07/12 01:19:58;;;;;;;3.10;2.10;;;;;;;12.19;77.68;100181.77;105606;1278;108293;-72
2022/07/12 01:22:34;;;;;;;3.00;2.00;;;;;;;12.16;77.68;100181.19;105596;1279;139054;-72
2022/07/12 01:25:07;;;;;;;6.10;2.00;;;;;;;12.15;77.80;100181.08;105717;1278;97835;-72
2022/07/12 01:27:41;;;;;;;4.80;2.00;;;;;;;12.14;77.99;100179.73;107179;1277;113220;-72
2022/07/12 01:30:14;;;;;;;5.60;1.90;;;;;;;12.13;78.04;100176.82;106124;1277;108712;-72
2022/07/12 01:32:46;;;;;;;7.50;2.40;;;;;;;12.13;78.12;100170.36;107024;1279;109180;-72
2022/07/12 01:35:19;;;;;;;4.30;3.00;;;;;;;12.13;78.26;100162.32;106851;1279;139105;-72
2022/07/12 01:37:52;;;;;;;6.60;2.20;;;;;;;12.13;78.33;100165.98;106146;1278;97810;-73
2022/07/12 01:40:25;;;;;;;4.70;2.10;;;;;;;12.13;78.41;100162.69;106341;1277;139508;-73
2022/07/12 01:42:58;;;;;;;5.40;2.20;;;;;;;12.13;78.56;100159.19;105865;1279;109033;-72
2022/07/12 01:45:30;;;;;;;4.20;2.30;;;;;;;12.15;78.70;100158.92;106426;1278;108106;-73
2022/07/12 01:48:03;;;;;;;3.10;2.00;;;;;;;12.18;78.87;100160.55;107054;1277;139742;-73
2022/07/12 01:50:36;;;;;;;5.10;2.20;;;;;;;12.19;78.84;100155.96;106970;1280;96079;-73
2022/07/12 01:53:11;;;;;;;4.50;2.30;;;;;;;12.20;78.84;100155.23;106588;1279;138630;-72
2022/07/12 01:55:43;;;;;;;6.30;2.20;;;;;;;12.20;78.77;100154.55;105753;1277;107978;-72
2022/07/12 01:58:17;;;;;;;3.30;2.40;;;;;;;12.21;78.98;100156.59;105758;1278;138955;-73
2022/07/12 02:00:52;;;;;;;5.80;2.30;;;;;;;12.25;78.94;100149.66;107172;1277;96583;-71
2022/07/12 02:03:25;;;;;;;4.10;2.20;;;;;;;12.25;79.00;100145.12;107139;1279;96121;-71
2022/07/12 02:05:57;;;;;;;5.20;2.60;;;;;;;12.26;79.11;100141.79;107055;1279;140372;-72
2022/07/12 02:08:29;;;;;;;6.00;2.60;;;;;;;12.25;79.01;100143.21;107142;1278;108798;-72
2022/07/12 02:11:02;;;;;;;6.30;2.80;;;;;;;12.24;79.20;100139.06;106508;1279;138653;-73
2022/07/12 02:13:34;;;;;;;6.60;2.80;;;;;;;12.22;79.14;100137.73;106116;1279;97854;-72
2022/07/12 02:16:08;;;;;;;3.50;2.60;;;;;;;12.22;79.22;100139.84;107014;1279;138806;-71
2022/07/12 02:18:41;;;;;;;5.40;2.40;;;;;;;12.22;79.29;100140.89;106050;1278;111452;-72
2022/07/12 02:21:13;;;;;;;5.40;3.10;;;;;;;12.26;79.47;100142.31;107161;1279;108890;-72
2022/07/12 02:23:46;;;;;;;5.50;2.70;;;;;;;12.30;79.63;100142.45;107027;1279;138708;-72
2022/07/12 02:26:18;;;;;;;5.10;2.20;;;;;;;12.33;79.74;100137.62;107102;1279;96107;-72
2022/07/12 02:28:51;;;;;;;5.30;2.70;;;;;;;12.36;79.66;100137.65;107030;1279;139012;-72
2022/07/12 02:31:23;;;;;;;3.60;2.30;;;;;;;12.38;79.48;100141.92;107111;1279;112522;-72
2022/07/12 02:33:56;;;;;;;6.40;2.20;;;;;;;12.40;79.48;100142.23;106990;1279;139719;-71
2022/07/12 02:36:28;;;;;;;5.00;2.60;;;;;;;12.43;79.54;100144.04;107002;1279;108442;-72
2022/07/12 02:39:03;;;;;;;4.50;2.50;;;;;;;12.45;79.59;100138.73;107120;1279;96119;-72
2022/07/12 02:41:35;;;;;;;5.10;2.60;;;;;;;12.47;79.67;100136.52;106476;1279;139124;-72
2022/07/12 02:44:09;;;;;;;7.20;2.70;;;;;;;12.51;79.51;100132.69;106152;1279;112503;-72
2022/07/12 02:46:41;;;;;;;7.90;2.80;;;;;;;12.53;79.58;100132.23;106521;1279;139423;-72
2022/07/12 02:49:14;;;;;;;6.10;2.40;;;;;;;12.56;79.58;100127.42;105718;1279;108916;-72
2022/07/12 02:51:46;;;;;;;7.60;2.30;;;;;;;12.58;79.55;100124.20;105693;1279;98594;-72
2022/07/12 02:54:19;;;;;;;5.00;2.60;;;;;;;12.61;79.47;100122.52;105852;1279;97718;-71
2022/07/12 02:56:51;;;;;;;3.40;2.80;;;;;;;12.63;79.49;100115.81;105868;1279;112502;-71
2022/07/12 02:59:25;;;;;;;11.40;4.20;;;;;;;12.67;79.49;100118.42;105803;1279;138789;-71
2022/07/12 03:01:57;;;;;;;5.70;2.60;;;;;;;12.69;79.51;100122.14;105826;1279;108051;-71
2022/07/12 03:04:30;;;;;;;7.00;2.60;;;;;;;12.70;79.44;100124.35;106060;1279;139032;-71
2022/07/12 03:07:02;;;;;;;6.10;3.00;;;;;;;12.73;79.53;100123.38;106021;1279;97865;-72
2022/07/12 03:09:36;;;;;;;4.30;2.40;;;;;;;12.74;79.40;100127.02;106835;1279;111665;-71
2022/07/12 03:12:09;;;;;;;7.30;2.70;;;;;;;12.76;79.48;100125.91;105929;1279;139564;-72
2022/07/12 03:14:42;;;;;;;9.50;3.20;;;;;;;12.78;79.57;100123.36;107120;1279;109121;-72
2022/07/12 03:17:14;;;;;;;7.60;2.60;;;;;;;12.81;79.35;100125.69;106043;1280;138836;-72
2022/07/12 03:19:47;;;;;;;4.30;2.60;;;;;;;12.83;79.45;100124.36;105789;1281;97834;-72
2022/07/12 03:22:19;;;;;;;5.80;2.40;;;;;;;12.85;79.42;100127.93;105875;1279;139408;-72
2022/07/12 03:24:52;;;;;;;4.60;2.60;;;;;;;12.86;79.39;100127.67;107130;1279;107727;-72
2022/07/12 03:27:25;;;;;;;3.60;2.40;;;;;;;12.90;79.46;100130.30;107073;1278;107563;-72
2022/07/12 03:29:58;;;;;;;4.20;2.30;;;;;;;12.93;79.51;100129.66;105832;1279;138984;-72
2022/07/12 03:32:30;;;;;;;7.30;3.00;;;;;;;12.96;79.49;100129.02;107100;1279;95886;-72
2022/07/12 03:35:03;;;;;;;5.80;2.40;;;;;;;13.01;79.46;100127.77;105884;1279;138563;-72
2022/07/12 03:37:44;;;;;;;8.50;2.50;;;;;;;13.06;79.47;100128.77;105882;1279;108911;-72
2022/07/12 03:40:19;;;;;;;7.00;2.40;;;;;;;13.08;79.33;100125.66;106130;1279;139005;-72
2022/07/12 03:42:52;;;;;;;6.70;2.50;;;;;;;13.10;79.41;100121.59;105845;1279;97843;-72
2022/07/12 03:45:26;;;;;;;3.20;2.20;;;;;;;13.12;79.35;100125.54;106537;1279;97941;-72
2022/07/12 03:47:58;;;;;;;8.30;2.60;;;;;;;13.12;79.32;100123.77;105818;1279;138616;-72
2022/07/12 03:50:32;;;;;;;7.70;2.70;;;;;;;13.14;79.26;100123.36;105710;1279;107839;-72
2022/07/12 03:53:04;;;;;;;5.50;2.50;;;;;;;13.14;79.31;100124.89;105648;1279;138867;-73
2022/07/12 03:55:37;;;;;;;4.50;2.60;;;;;;;13.16;79.39;100121.31;105548;1281;97828;-73
2022/07/12 03:58:09;;;;;;;4.40;2.50;;;;;;;13.18;79.33;100120.02;105734;1279;138890;-73
2022/07/12 04:00:42;;;;;;;4.80;2.30;;;;;;;13.21;79.30;100121.96;105817;1279;111101;-72
2022/07/12 04:03:15;;;;;;;4.70;2.40;;;;;;;13.26;79.18;100118.62;105830;1281;108920;-72
2022/07/12 04:05:48;;;;;;;6.40;3.10;;;;;;;13.28;79.04;100105.62;105713;1279;139157;-72
2022/07/12 04:08:20;;;;;;;8.40;2.60;;;;;;;13.31;79.13;100103.77;105802;1279;97962;-72
2022/07/12 04:10:53;;;;;;;7.80;2.80;;;;;;;13.34;79.02;100104.85;106113;1279;138580;-72
2022/07/12 04:13:25;;;;;;;6.00;2.70;;;;;;;13.38;79.11;100111.13;105835;1279;112969;-72
2022/07/12 04:15:58;;;;;;;6.80;2.90;;;;;;;13.41;78.99;100105.55;105747;1279;139072;-73
2022/07/12 04:18:30;;;;;;;5.30;2.80;;;;;;;13.44;78.82;100100.16;106998;1280;107962;-72
2022/07/12 04:21:03;;;;;;;5.50;2.60;;;;;;;13.45;78.80;100095.73;106150;1279;97849;-72
2022/07/12 04:23:35;;;;;;;3.80;2.50;;;;;;;13.47;78.88;100091.65;105817;1279;138782;-72
2022/07/12 04:26:08;;;;;;;3.60;2.70;;;;;;;13.52;78.99;100088.59;107104;1279;111488;-72
2022/07/12 04:28:40;;;;;;;9.60;3.00;;;;;;;13.58;78.70;100097.39;106098;1279;138803;-73
2022/07/12 04:31:13;;;;;;;5.70;2.90;;;;;;;13.60;78.46;100092.61;107094;1279;107741;-72
2022/07/12 04:33:45;;;;;;;6.10;2.80;;;;;;;13.61;78.58;100090.81;107021;1280;95987;-72
2022/07/12 04:36:18;;;;;;;3.90;2.70;;;;;;;13.65;78.51;100085.54;107079;1278;96526;-72
2022/07/12 04:38:50;;;;;;;8.10;2.60;;;;;;;13.71;78.52;100081.98;106660;1279;111694;-72
2022/07/12 04:41:24;;;;;;;7.80;3.00;;;;;;;13.76;78.46;100078.58;105959;1279;139919;-72
2022/07/12 04:43:56;;;;;;;6.00;3.00;;;;;;;13.81;78.57;100081.13;106879;1278;108980;-72
2022/07/12 04:46:29;;;;;;;8.80;2.70;;;;;;;13.87;78.30;100081.38;105708;1280;138981;-72
2022/07/12 04:49:01;;;;;;;7.00;2.90;;;;;;;13.92;78.34;100082.17;106196;1279;97822;-72
2022/07/12 04:51:34;;;;;;;6.20;3.50;;;;;;;13.97;78.15;100075.11;106126;1279;112796;-72
2022/07/12 04:54:07;;;;;;;2.90;2.40;;;;;;;14.03;78.14;100076.76;105729;1279;139033;-73
2022/07/12 04:56:40;;;;;;;5.20;3.00;;;;;;;14.08;78.08;100074.75;107068;1279;109093;-72
2022/07/12 04:59:12;;;;;;;7.50;2.70;;;;;;;14.11;77.91;100073.50;105678;1279;138701;-73
2022/07/12 05:01:45;;;;;;;7.40;3.10;;;;;;;14.16;77.90;100074.84;105623;1279;97845;-72
2022/07/12 05:04:18;;;;;;;9.60;3.10;;;;;;;14.19;77.78;100076.64;106486;1279;138800;-72
2022/07/12 05:06:52;;;;;;;4.70;2.70;;;;;;;14.23;77.73;100070.66;105853;1279;107779;-73
2022/07/12 05:09:24;;;;;;;5.20;2.80;;;;;;;14.31;77.72;100064.33;106722;1279;108993;-72
2022/07/12 05:11:57;;;;;;;8.20;2.60;;;;;;;14.37;77.52;100057.71;106099;1279;138846;-72
2022/07/12 05:14:30;;;;;;;9.40;2.80;;;;;;;14.44;77.45;100057.73;105819;1279;97946;-72
2022/07/12 05:17:03;;;;;;;6.90;2.90;;;;;;;14.53;77.39;100060.77;107032;1279;138561;-71
2022/07/12 05:19:35;;;;;;;4.30;2.60;;;;;;;14.62;77.36;100062.63;106788;1279;107814;-71
2022/07/12 05:22:08;;;;;;;9.50;2.80;;;;;;;14.69;77.07;100060.80;105816;1279;138903;-71
2022/07/12 05:24:40;;;;;;;8.30;2.40;;;;;;;14.77;77.07;100066.03;105735;1281;97878;-72
2022/07/12 05:27:13;;;;;;;7.10;2.90;;;;;;;14.84;76.91;100066.16;106074;1279;97746;-72
2022/07/12 05:29:46;;;;;;;3.60;2.20;;;;;;;14.90;76.81;100067.77;105661;1279;139665;-72
2022/07/12 05:32:18;;;;;;;6.00;3.10;;;;;;;14.95;76.72;100066.81;105840;1279;109414;-72
2022/07/12 05:34:50;;;;;;;7.40;2.50;;;;;;;15.00;76.55;100066.01;105754;1279;138974;-72
2022/07/12 05:37:24;;;;;;;4.80;2.40;;;;;;;15.09;76.42;100061.88;105824;1279;97917;-72
2022/07/12 05:39:57;;;;;;;6.50;2.40;;;;;;;15.21;76.36;100055.43;105762;1279;138717;-71
2022/07/12 05:42:29;;;;;;;4.90;2.20;;;;;;;15.34;76.09;100057.85;107179;1279;112546;-72
2022/07/12 05:45:01;;;;;;;6.90;2.10;;;;;;;15.47;75.87;100056.07;107150;1276;107633;-73
2022/07/12 05:47:34;;;;;;;2.50;1.90;;;;;;;15.72;75.80;100053.52;107061;1279;138952;-72
2022/07/12 05:50:09;;;;;;;7.40;2.20;;;;;;;16.02;75.18;100055.26;106423;1279;97813;-73
2022/07/12 05:55:32;;;;;;;6.30;2.40;;;;;;;16.29;74.06;100052.09;105853;1279;112191;-73
2022/07/12 05:58:04;;;;;;;4.00;2.20;;;;;;;16.38;73.96;100049.85;105763;1279;139096;-72
2022/07/12 06:00:37;;;;;;;6.20;2.10;;;;;;;16.46;73.59;100045.16;105848;1279;108388;-72
2022/07/12 06:03:10;;;;;;;4.40;1.70;;;;;;;16.56;73.26;100040.71;106025;1279;97871;-73
2022/07/12 06:05:43;;;;;;;3.30;1.50;;;;;;;16.73;72.95;100041.98;105795;1279;138882;-74
2022/07/12 06:08:15;;;;;;;3.20;1.50;;;;;;;17.09;72.88;100036.80;105839;1279;112118;-72
2022/07/12 06:10:48;;;;;;;5.60;1.70;;;;;;;17.41;71.67;100043.36;105823;1279;139022;-72
2022/07/12 06:13:20;;;;;;;3.70;1.60;;;;;;;17.44;71.37;100044.24;107116;1278;108692;-72
2022/07/12 06:15:52;;;;;;;5.60;1.50;;;;;;;17.44;71.04;100050.71;105882;1281;138982;-71
2022/07/12 06:18:25;;;;;;;4.10;1.40;;;;;;;17.40;70.58;100055.38;106795;1279;97843;-72
2022/07/12 06:20:58;;;;;;;3.70;1.50;;;;;;;17.34;70.60;100055.41;106171;1279;115274;-71
2022/07/12 06:23:30;;;;;;;4.00;1.40;;;;;;;17.33;70.56;100057.08;105764;1279;138953;-72
2022/07/12 06:26:03;;;;;;;5.00;1.40;;;;;;;17.28;70.47;100058.74;106195;1279;108998;-71
2022/07/12 06:28:36;;;;;;;5.80;1.50;;;;;;;17.24;70.44;100063.95;105731;1279;140514;-71
2022/07/12 06:31:09;;;;;;;3.80;1.50;;;;;;;17.21;70.55;100061.98;107149;1278;96217;-72
2022/07/12 06:33:42;;;;;;;2.50;1.30;;;;;;;17.17;70.54;100059.08;106006;1279;112150;-74
2022/07/12 06:36:14;;;;;;;5.20;1.80;;;;;;;17.17;70.66;100051.71;105696;1279;138666;-72
2022/07/12 06:38:46;;;;;;;4.90;1.60;;;;;;;17.31;70.58;100046.94;106014;1279;109338;-73
2022/07/12 06:41:21;;;;;;;5.90;1.60;;;;;;;17.66;70.40;100044.76;105665;1279;138793;-73
2022/07/12 06:43:54;;;;;;;4.70;1.40;;;;;;;18.21;69.74;100042.73;105675;1279;97846;-72
2022/07/12 06:46:26;;;;;;;4.20;1.60;;;;;;;18.67;68.96;100042.75;105726;1280;139207;-71
2022/07/12 06:48:59;;;;;;;4.00;1.50;;;;;;;18.88;67.97;100040.77;106775;1279;108841;-72
2022/07/12 06:51:31;;;;;;;2.20;1.10;;;;;;;19.06;67.44;100040.08;105796;1281;108841;-71
2022/07/12 06:54:03;;;;;;;4.10;1.30;;;;;;;19.18;66.94;100040.09;105678;1279;139933;-73
2022/07/12 06:56:36;;;;;;;3.30;1.40;;;;;;;19.27;66.64;100034.30;106012;1279;97987;-72
2022/07/12 06:59:10;;;;;;;3.80;1.20;;;;;;;19.76;66.19;100033.40;105660;1281;139033;-73
2022/07/12 07:01:47;;;;;;;3.80;1.20;;;;;;;20.53;64.81;100031.33;105785;1281;108423;-73
2022/07/12 07:04:20;;;;;;;3.00;0.90;;;;;;;21.07;63.23;100024.80;105643;1281;138844;-73
2022/07/12 07:06:52;;;;;;;1.30;0.80;;;;;;;21.24;62.47;100027.02;105811;1280;97838;-73
2022/07/12 07:09:25;;;;;;;2.60;1.20;;;;;;;21.30;61.42;100025.31;106342;1279;97809;-73
2022/07/12 07:11:57;;;;;;;3.10;0.80;;;;;;;21.25;61.39;100022.34;105553;1281;137903;-72
2022/07/12 07:14:30;;;;;;;2.50;1.10;;;;;;;21.34;61.37;100023.04;106015;1279;108829;-72
2022/07/12 07:17:02;;;;;;;1.40;0.90;;;;;;;21.40;60.85;100025.43;105618;1279;138187;-72
2022/07/12 07:19:37;;;;;;;2.00;0.80;;;;;;;21.38;60.13;100030.84;105764;1279;97808;-71
2022/07/12 07:22:10;;;;;;;4.80;0.90;;;;;;;21.47;59.74;100024.33;105635;1280;139115;-71
2022/07/12 07:24:42;;;;;;;2.80;0.90;;;;;;;21.44;59.31;100025.80;105716;1279;113291;-74
2022/07/12 07:27:15;;;;;;;4.40;1.00;;;;;;;21.37;59.49;100032.20;105597;1279;107571;-73
2022/07/12 07:32:38;;;;;;;2.10;0.90;;;;;;;22.01;58.36;100034.14;105829;1279;98065;-72
2022/07/12 07:35:10;;;;;;;1.20;0.80;;;;;;;22.11;58.16;100034.08;105684;1279;139092;-72
2022/07/12 07:37:43;;;;;;;2.60;1.00;;;;;;;22.76;57.82;100032.81;105822;1280;111265;-73
2022/07/12 07:40:15;;;;;;;1.40;0.70;;;;;;;23.04;56.53;100034.83;107050;1279;138867;-73
2022/07/12 07:42:48;;;;;;;4.00;0.80;;;;;;;23.28;55.64;100034.62;106490;1279;107672;-73
2022/07/12 07:45:22;;;;;;;2.80;1.10;;;;;;;23.21;55.00;100031.89;105823;1279;97892;-72
2022/07/12 07:47:54;;;;;;;2.50;1.10;;;;;;;22.98;54.79;100028.61;105756;1279;137915;-70
2022/07/12 07:50:47;;;;;;;3.80;0.90;;;;;;;23.16;54.92;100030.02;105808;1281;112232;-72
2022/07/12 07:53:20;;;;;;;1.20;0.70;;;;;;;23.94;53.23;100030.44;106247;1279;138045;-70
2022/07/12 07:55:53;;;;;;;3.10;0.70;;;;;;;24.62;52.32;100029.71;105722;1281;108316;-71
2022/07/12 07:58:26;;;;;;;3.40;0.80;;;;;;;25.15;51.37;100022.89;105589;1279;138240;-74
2022/07/12 08:00:58;;;;;;;2.80;1.00;;;;;;;25.36;50.67;100017.65;105766;1280;97831;-72
2022/07/12 08:03:30;;;;;;;2.60;0.90;;;;;;;25.20;49.88;100016.49;105882;1281;112593;-72
2022/07/12 08:06:03;;;;;;;3.30;1.10;;;;;;;24.80;50.07;100018.19;105599;1279;138070;-71
2022/07/12 08:08:36;;;;;;;1.30;1.00;;;;;;;24.52;50.36;100016.08;106431;1281;109246;-71
2022/07/12 08:11:28;;;;;;;2.90;0.90;;;;;;;24.68;50.05;100010.77;106550;1279;139314;-73
2022/07/12 08:14:01;;;;;;;2.70;1.00;;;;;;;24.88;49.56;100006.95;105958;1281;97733;-73
2022/07/12 08:16:34;;;;;;;2.40;0.70;;;;;;;25.03;48.75;100004.11;105774;1281;138190;-71
2022/07/12 08:19:07;;;;;;;2.20;1.00;;;;;;;24.97;48.53;100002.89;106496;1279;108618;-73
2022/07/12 08:21:40;;;;;;;4.40;1.00;;;;;;;24.64;48.46;100012.48;105920;1281;109047;-72
2022/07/12 08:24:12;;;;;;;2.30;1.00;;;;;;;24.14;48.74;100013.00;106890;1281;139442;-73
2022/07/12 08:26:44;;;;;;;2.40;1.10;;;;;;;23.54;49.29;100012.78;107149;1279;96333;-73
2022/07/12 08:29:17;;;;;;;2.50;0.90;;;;;;;23.40;49.48;100021.36;106597;1279;137827;-73
2022/07/12 08:31:50;;;;;;;1.20;0.80;;;;;;;23.49;49.55;100019.77;105980;1281;108444;-73
2022/07/12 08:34:24;;;;;;;3.90;1.20;;;;;;;23.75;49.55;100019.10;106846;1281;138859;-72
2022/07/12 08:36:56;;;;;;;5.10;1.10;;;;;;;24.10;48.91;100026.23;106595;1280;95812;-73
2022/07/12 08:39:30;;;;;;;2.50;0.70;;;;;;;24.45;48.22;100026.84;106995;1280;95931;-72
2022/07/12 08:42:05;;;;;;;1.90;1.00;;;;;;;24.63;48.06;100025.85;106598;1281;140239;-73
2022/07/12 08:44:38;;;;;;;3.10;0.90;;;;;;;24.55;47.24;100028.62;105946;1281;108911;-73
2022/07/12 08:47:11;;;;;;;3.00;1.10;;;;;;;24.37;47.41;100021.58;105618;1279;138112;-73
2022/07/12 08:50:14;;;;;;;1.80;1.00;;;;;;;24.29;47.30;100019.71;105895;1281;98295;-73
2022/07/12 08:52:47;;;;;;;4.40;1.90;;;;;;;24.17;47.63;100021.08;106985;1279;138595;-72
2022/07/12 08:55:22;;;;;;;3.60;0.90;;;;;;;23.98;48.22;100023.04;107119;1279;110337;-72
2022/07/12 08:57:57;;;;;;;4.00;1.00;;;;;;;23.96;48.66;100015.45;106949;1279;139376;-71
2022/07/12 09:00:30;;;;;;;2.90;0.90;;;;;;;24.03;48.15;100011.86;107099;1279;109631;-70
2022/07/12 09:03:06;;;;;;;3.60;0.80;;;;;;;24.16;48.28;100014.85;107140;1279;96166;-70
2022/07/12 09:05:47;;;;;;;3.80;1.20;;;;;;;24.22;47.81;100015.64;107013;1279;137968;-62
2022/07/12 09:08:25;;;;;;;4.00;0.90;;;;;;;24.19;47.78;100011.30;107076;1279;112720;-60
2022/07/12 09:11:01;;;;;;;3.50;0.80;;;;;;;24.02;47.41;100011.06;107060;1279;138711;-60
2022/07/12 09:13:52;;;;;;;2.70;1.10;;;;;;;23.90;47.36;100005.10;107099;1279;108853;-60
2022/07/12 09:16:27;;;;;;;2.10;1.00;;;;;;;23.88;47.61;100007.27;106981;1279;142250;-60
2022/07/12 09:19:17;;;;;;;16.20;2.20;;;;;;;23.91;47.15;100002.00;107093;1279;96093;-71
2022/07/12 09:21:54;;;;;;;30.10;2.20;;;;;;;23.90;46.75;99997.31;107105;1279;112452;-71
2022/07/12 09:24:29;;;;;;;3.30;1.00;;;;;;;23.94;47.22;99998.94;107104;1279;108911;-69
2022/07/12 09:27:04;;;;;;;2.30;0.90;;;;;;;23.83;46.91;99995.52;107081;1279;108157;-62
2022/07/12 09:29:49;;;;;;;6.10;1.00;;;;;;;23.63;46.84;99996.79;106974;1279;138507;-62
2022/07/12 09:38:14;;;;;;;4.00;0.90;;;;;;;23.00;47.39;99992.87;107126;1279;107906;-64
2022/07/12 09:40:47;;;;;;;6.60;1.60;;;;;;;22.79;47.57;100001.71;106832;1279;138203;-63
2022/07/12 09:43:20;;;;;;;1.90;0.80;;;;;;;22.65;47.88;100001.36;107090;1279;96186;-62
2022/07/12 09:45:52;;;;;;;2.70;0.80;;;;;;;22.53;47.70;99999.54;106394;1279;138123;-62
2022/07/12 09:48:27;;;;;;;2.40;0.90;;;;;;;22.31;47.99;99997.67;105980;1279;397877;-62
2022/07/12 09:51:03;;;;;;;1.50;1.00;;;;;;;22.18;48.40;99992.43;106901;1279;108341;-65
2022/07/12 09:53:45;;;;;;;2.40;0.90;;;;;;;22.17;48.86;99992.32;105763;1279;138002;-64
2022/07/12 09:56:19;;;;;;;2.40;0.90;;;;;;;22.22;49.45;99995.28;107149;1279;96972;-63
2022/07/12 09:58:54;;;;;;;4.40;0.80;;;;;;;22.26;49.24;100000.21;105908;1279;138727;-63
2022/07/12 10:01:27;;;;;;;4.60;0.80;;;;;;;22.29;49.23;99991.30;105799;1279;112953;-62
2022/07/12 10:04:02;;;;;;;2.40;0.90;;;;;;;22.22;49.24;99997.33;106010;1279;138033;-62
2022/07/12 10:06:34;;;;;;;6.10;0.90;;;;;;;22.15;49.28;99997.60;105751;1281;108475;-63
2022/07/12 10:09:09;;;;;;;18.10;2.10;;;;;;;22.07;49.26;99986.80;107160;1279;96028;-63
2022/07/12 10:11:42;;;;;;;6.80;1.20;;;;;;;22.02;49.33;99986.33;107046;1279;138130;-63
2022/07/12 10:14:31;;;;;;;4.70;1.10;;;;;;;22.01;49.63;99984.26;107090;1279;112616;-65
2022/07/12 10:17:08;;;;;;;6.10;0.80;;;;;;;22.00;49.72;99984.34;107101;1279;139710;-63
2022/07/12 10:19:41;;;;;;;4.60;1.10;;;;;;;21.92;49.47;99977.79;106912;1281;108917;-64
2022/07/12 10:22:22;;;;;;;4.20;1.20;;;;;;;21.82;49.90;99978.80;106351;1279;138064;-68
2022/07/12 10:24:56;;;;;;;3.00;0.90;;;;;;;21.83;50.03;99981.35;107177;1279;96115;-69
2022/07/12 10:27:34;;;;;;;7.00;0.90;;;;;;;21.79;49.98;99974.95;107075;1279;112728;-74
2022/07/12 10:30:24;;;;;;;1.50;0.80;;;;;;;21.73;49.88;99978.84;106985;1279;137655;-74
2022/07/12 10:32:58;;;;;;;3.70;1.00;;;;;;;21.71;49.88;99978.60;106515;1279;108951;-73
2022/07/12 10:35:32;;;;;;;4.50;1.50;;;;;;;21.66;49.88;99973.86;105985;1279;138242;-73
2022/07/12 10:38:23;;;;;;;3.70;1.50;;;;;;;21.61;49.92;99971.64;107225;1279;95964;-74
2022/07/12 10:40:56;;;;;;;5.20;1.50;;;;;;;21.55;49.69;99963.68;105903;1280;139268;-78
2022/07/12 10:46:26;;;;;;;4.50;1.00;;;;;;;21.33;49.93;99958.60;105772;1279;138068;-81
2022/07/12 10:49:26;;;;;;;4.80;1.10;;;;;;;21.26;50.09;99955.42;107157;1278;96150;-81
2022/07/12 10:52:23;;;;;;;4.20;1.20;;;;;;;21.24;50.25;99957.21;105982;1280;138900;-83
2022/07/12 10:55:19;;;;;;;2.30;1.00;;;;;;;21.18;50.26;99956.09;107234;1279;112213;-82
2022/07/12 10:57:54;;;;;;;1.80;0.90;;;;;;;21.09;50.24;99955.16;106168;1279;108235;-82
2022/07/12 11:00:26;;;;;;;1.20;0.80;;;;;;;21.05;50.51;99951.40;106856;1279;107746;-84
2022/07/12 11:03:04;;;;;;;5.00;1.00;;;;;;;21.00;50.42;99950.98;107203;1279;96058;-81
2022/07/12 11:05:36;;;;;;;2.10;1.10;;;;;;;20.96;50.50;99955.48;107023;1280;137693;-83
2022/07/12 11:08:16;;;;;;;3.20;1.10;;;;;;;20.95;50.71;99961.95;107222;1279;112613;-82
2022/07/12 11:10:58;;;;;;;3.50;1.10;;;;;;;20.93;50.94;99951.18;107122;1279;138076;-81
2022/07/12 11:13:31;;;;;;;2.50;1.00;;;;;;;20.90;50.91;99953.02;107205;1279;108888;-81
2022/07/12 11:16:04;;;;;;;3.60;1.20;;;;;;;20.84;50.98;99948.74;106332;1281;138137;-83
2022/07/12 11:18:37;;;;;;;3.20;1.00;;;;;;;20.83;51.15;99942.11;106246;1280;97939;-81
2022/07/12 11:21:09;;;;;;;1.50;1.00;;;;;;;20.86;51.20;99945.59;107233;1281;111234;-81
2022/07/12 11:23:42;;;;;;;3.90;0.80;;;;;;;20.92;51.16;99943.16;107064;1279;138119;-80
2022/07/12 11:26:15;;;;;;;2.20;1.00;;;;;;;20.95;51.26;99942.16;106896;1280;108809;-80
2022/07/12 11:28:49;;;;;;;3.40;1.00;;;;;;;21.06;51.35;99938.30;105714;1281;137867;-81
2022/07/12 11:31:22;;;;;;;2.50;1.20;;;;;;;21.16;50.88;99936.20;106558;1281;98418;-71
2022/07/12 11:33:56;;;;;;;0.90;0.70;;;;;;;21.18;49.82;99930.06;106438;1281;137854;-70
2022/07/12 11:36:30;;;;;;;1.70;0.80;;;;;;;21.13;49.42;99929.77;106608;1281;108882;-71
2022/07/12 11:39:02;;;;;;;1.80;1.00;;;;;;;21.06;49.74;99937.23;107143;1281;108893;-71
2022/07/12 11:41:35;;;;;;;3.60;1.10;;;;;;;21.02;49.57;99935.77;107019;1281;139070;-63
2022/07/12 11:44:07;;;;;;;3.20;1.40;;;;;;;20.98;49.05;99931.39;107143;1281;97576;-61
2022/07/12 11:46:40;;;;;;;2.40;0.80;;;;;;;20.93;49.31;99940.21;106116;1281;137716;-63
2022/07/12 11:49:17;;;;;;;4.60;0.80;;;;;;;20.89;49.26;99936.30;106111;1281;109172;-81
2022/07/12 11:51:48;;;;;;;;;;;;;;;20.82;49.18;99930.52;106201;1280;107794;-80
2022/07/12 11:54:27;;;;;;;1.40;1.00;;;;;;;20.74;49.23;99932.19;105895;1281;97944;-82
2022/07/12 11:57:09;;;;;;;2.90;1.00;;;;;;;20.70;49.56;99937.30;106662;1279;97722;-79